Time;durP1;ratioP1;P1;durP2;ratioP2;P2;SDS_P1;SDS_P2;PMS_P1;PMS_P2;Temp;Humidity;BMP_temperature;BMP_pressure;BME280_temperature;BME280_humidity;BME280_pressure;Samples;Min_cycle;Max_cycle;Signal;HPM_P1;HPM_P2
2021/09/25 00:02:01;;;;;;;5.73;4.87;;;10.60;99.90;;;;;;5039003;28;20170;-78
2021/09/25 00:04:27;;;;;;;6.80;5.77;;;10.60;99.90;;;;;;5036832;28;20644;-79
2021/09/25 00:06:53;;;;;;;9.60;5.70;;;10.60;99.90;;;;;;5037462;28;20210;-78
2021/09/25 00:09:19;;;;;;;6.93;5.37;;;10.60;99.90;;;;;;5038678;28;20178;-79
2021/09/25 00:11:45;;;;;;;8.00;5.47;;;10.60;99.90;;;;;;5037746;28;20174;-79
2021/09/25 00:14:10;;;;;;;6.27;5.40;;;10.60;99.90;;;;;;5038562;28;20170;-78
2021/09/25 00:16:36;;;;;;;5.50;5.00;;;10.70;99.90;;;;;;5038950;28;20561;-78
2021/09/25 00:19:03;;;;;;;6.50;5.50;;;10.70;99.90;;;;;;5037124;28;20640;-78
2021/09/25 00:21:29;;;;;;;6.77;5.67;;;10.70;99.90;;;;;;5039298;28;20186;-78
2021/09/25 00:23:55;;;;;;;6.23;5.20;;;10.70;99.90;;;;;;5042204;28;20446;-78
2021/09/25 00:26:21;;;;;;;8.77;4.93;;;10.60;99.90;;;;;;5040863;28;20198;-79
2021/09/25 00:28:47;;;;;;;6.07;5.10;;;10.60;99.90;;;;;;5037914;28;20677;-79
2021/09/25 00:31:13;;;;;;;8.83;5.33;;;10.60;99.90;;;;;;5039691;28;20170;-78
2021/09/25 00:33:38;;;;;;;6.50;4.97;;;10.60;99.90;;;;;;5039653;28;20212;-79
2021/09/25 00:36:04;;;;;;;5.97;4.53;;;10.60;99.90;;;;;;5039994;28;20170;-79
2021/09/25 00:38:30;;;;;;;6.20;4.40;;;10.60;99.90;;;;;;5039700;28;20194;-79
2021/09/25 00:40:56;;;;;;;5.27;4.77;;;10.60;99.90;;;;;;5039651;28;20231;-79
2021/09/25 00:43:22;;;;;;;5.43;4.60;;;10.50;99.90;;;;;;5037936;28;20264;-79
2021/09/25 00:45:47;;;;;;;6.40;4.80;;;10.50;99.90;;;;;;5039441;28;20200;-78
2021/09/25 00:48:13;;;;;;;7.33;4.73;;;10.50;99.90;;;;;;5042655;28;20194;-78
2021/09/25 00:50:39;;;;;;;6.43;5.00;;;10.50;99.90;;;;;;5043723;28;20173;-78
2021/09/25 00:53:05;;;;;;;5.03;4.23;;;10.40;99.90;;;;;;5041857;28;20241;-78
2021/09/25 00:55:31;;;;;;;6.20;4.43;;;10.40;99.90;;;;;;5043108;28;20182;-79
2021/09/25 00:58:03;;;;;;;5.60;4.60;;;10.30;99.90;;;;;;5037758;28;20206;-79
2021/09/25 01:00:30;;;;;;;5.67;4.53;;;10.30;99.90;;;;;;5038513;28;20170;-79
2021/09/25 01:02:55;;;;;;;6.37;4.33;;;10.30;99.90;;;;;;5038519;28;20179;-79
2021/09/25 01:05:22;;;;;;;6.67;4.43;;;10.20;99.90;;;;;;5036568;28;20292;-79
2021/09/25 01:07:48;;;;;;;5.60;4.50;;;10.30;99.90;;;;;;5037008;28;20201;-79
2021/09/25 01:10:16;;;;;;;6.83;4.30;;;10.20;99.90;;;;;;5036817;28;20179;-79
2021/09/25 01:12:42;;;;;;;6.60;4.50;;;10.20;99.90;;;;;;5037803;28;20182;-79
2021/09/25 01:15:09;;;;;;;7.47;4.70;;;10.20;99.90;;;;;;5036758;28;20269;-79
2021/09/25 01:17:35;;;;;;;5.57;4.57;;;10.20;99.90;;;;;;5037763;28;20680;-79
2021/09/25 01:20:02;;;;;;;7.03;4.30;;;10.20;99.90;;;;;;5036472;28;20304;-78
2021/09/25 01:22:28;;;;;;;8.40;4.30;;;10.20;99.90;;;;;;5036321;28;20186;-79
2021/09/25 01:24:54;;;;;;;6.73;4.30;;;10.20;99.90;;;;;;5036110;28;20193;-79
2021/09/25 01:27:19;;;;;;;5.83;4.63;;;10.20;99.90;;;;;;5037011;28;20206;-79
2021/09/25 01:29:46;;;;;;;5.03;4.50;;;10.20;99.90;;;;;;5038116;28;20664;-79
2021/09/25 01:32:12;;;;;;;6.67;4.70;;;10.20;99.90;;;;;;5035811;28;20183;-79
2021/09/25 01:34:37;;;;;;;5.43;4.50;;;10.20;99.90;;;;;;5037003;28;20258;-78
2021/09/25 01:37:04;;;;;;;4.80;4.00;;;10.20;99.90;;;;;;5035483;28;20237;-79
2021/09/25 01:39:33;;;;;;;5.37;3.80;;;10.20;99.90;;;;;;5037061;28;20185;-79
2021/09/25 01:42:01;;;;;;;4.70;4.13;;;10.20;99.90;;;;;;5035804;28;20232;-79
2021/09/25 01:44:27;;;;;;;4.83;4.30;;;10.20;99.90;;;;;;5035527;28;20184;-79
2021/09/25 01:46:58;;;;;;;5.73;4.63;;;10.20;99.90;;;;;;5035486;28;20214;-79
2021/09/25 01:49:24;;;;;;;6.07;4.20;;;10.20;99.90;;;;;;5036830;28;20617;-79
2021/09/25 01:51:50;;;;;;;4.77;4.27;;;10.20;99.90;;;;;;5038190;28;20174;-79
2021/09/25 01:54:18;;;;;;;5.23;4.37;;;10.20;99.90;;;;;;5039673;28;20170;-78
2021/09/25 01:56:44;;;;;;;5.00;4.50;;;10.20;99.90;;;;;;5041482;28;20578;-78
2021/09/25 01:59:10;;;;;;;4.93;4.00;;;10.20;99.90;;;;;;5037716;28;20253;-79
2021/09/25 02:01:37;;;;;;;5.03;4.30;;;10.20;99.90;;;;;;5035995;28;20217;-79
2021/09/25 02:04:02;;;;;;;4.63;4.10;;;10.20;99.90;;;;;;5035298;28;20174;-79
2021/09/25 02:06:28;;;;;;;4.23;3.83;;;10.20;99.90;;;;;;5037000;28;20268;-78
2021/09/25 02:08:54;;;;;;;4.60;3.90;;;10.20;99.90;;;;;;5036732;28;20182;-79
2021/09/25 02:11:20;;;;;;;5.70;4.20;;;10.10;99.90;;;;;;5036474;28;20175;-79
2021/09/25 02:13:47;;;;;;;4.57;4.17;;;10.10;99.90;;;;;;5035124;28;20178;-79
2021/09/25 02:16:13;;;;;;;5.63;4.20;;;10.10;99.90;;;;;;5036529;28;20174;-79
2021/09/25 02:18:40;;;;;;;5.07;4.23;;;10.00;99.90;;;;;;5036560;28;20252;-79
2021/09/25 02:21:07;;;;;;;4.43;3.73;;;10.00;99.90;;;;;;5036789;28;20209;-78
2021/09/25 02:23:33;;;;;;;4.27;3.57;;;10.10;99.90;;;;;;5034758;28;20187;-79
2021/09/25 02:26:00;;;;;;;6.27;4.63;;;10.00;99.90;;;;;;5035949;28;20220;-79
2021/09/25 02:28:27;;;;;;;4.90;3.90;;;10.00;99.90;;;;;;5036012;28;20212;-79
2021/09/25 02:30:53;;;;;;;7.20;3.70;;;10.00;99.90;;;;;;5035763;28;20285;-78
2021/09/25 02:33:19;;;;;;;4.87;4.10;;;10.00;99.90;;;;;;5034497;28;20174;-79
2021/09/25 02:35:45;;;;;;;6.27;4.00;;;10.00;99.90;;;;;;5035524;28;20270;-78
2021/09/25 02:38:11;;;;;;;5.13;3.97;;;10.00;99.90;;;;;;5035798;28;20194;-79
2021/09/25 02:40:37;;;;;;;6.57;3.97;;;10.00;99.90;;;;;;5035864;28;20179;-79
2021/09/25 02:43:03;;;;;;;5.07;4.50;;;10.00;99.90;;;;;;5034570;28;20518;-79
2021/09/25 02:45:29;;;;;;;6.33;4.00;;;9.90;99.90;;;;;;5036078;28;20190;-79
2021/09/25 02:47:55;;;;;;;5.70;4.30;;;9.90;99.90;;;;;;5035800;28;20203;-78
2021/09/25 02:50:21;;;;;;;8.13;4.97;;;9.90;99.90;;;;;;5035831;28;20521;-78
2021/09/25 02:52:46;;;;;;;4.23;3.83;;;9.90;99.90;;;;;;5036132;28;20166;-80
2021/09/25 02:55:13;;;;;;;7.33;4.13;;;9.90;99.90;;;;;;5036690;28;20532;-78
2021/09/25 02:57:39;;;;;;;4.23;3.83;;;9.80;99.90;;;;;;5036032;28;20194;-78
2021/09/25 03:00:12;;;;;;;5.20;4.40;;;9.80;99.90;;;;;;5034218;28;20569;-78
2021/09/25 03:02:38;;;;;;;6.07;4.27;;;9.80;99.90;;;;;;5035547;28;20241;-79
2021/09/25 03:05:03;;;;;;;5.97;4.00;;;9.80;99.90;;;;;;5037033;28;20194;-79
2021/09/25 03:07:29;;;;;;;5.60;4.30;;;9.70;99.90;;;;;;5037053;28;20241;-79
2021/09/25 03:09:55;;;;;;;4.33;3.93;;;9.70;99.90;;;;;;5037148;28;20181;-79
2021/09/25 03:12:20;;;;;;;5.77;3.93;;;9.60;99.90;;;;;;5040753;28;20198;-80
2021/09/25 03:14:46;;;;;;;5.80;3.70;;;9.70;99.90;;;;;;5040725;28;20632;-79
2021/09/25 03:17:12;;;;;;;4.57;4.00;;;9.60;99.90;;;;;;5041616;28;20257;-79
2021/09/25 03:19:38;;;;;;;8.13;4.10;;;9.60;99.90;;;;;;5041850;28;20171;-79
2021/09/25 03:22:03;;;;;;;4.27;3.83;;;9.60;99.90;;;;;;5041269;28;20210;-79
2021/09/25 03:24:29;;;;;;;5.27;3.97;;;9.60;99.90;;;;;;5040481;28;20253;-79
2021/09/25 03:26:55;;;;;;;4.97;3.97;;;9.60;99.90;;;;;;5039785;28;20626;-79
2021/09/25 03:29:21;;;;;;;4.23;3.57;;;9.60;99.90;;;;;;5038991;28;20216;-79
2021/09/25 03:31:49;;;;;;;4.87;4.10;;;9.60;99.90;;;;;;5039205;28;20589;-79
2021/09/25 03:34:15;;;;;;;4.20;3.77;;;9.70;99.90;;;;;;5039167;28;20171;-79
2021/09/25 03:36:41;;;;;;;4.73;4.27;;;9.70;99.90;;;;;;5039981;28;20255;-79
2021/09/25 03:39:08;;;;;;;5.43;3.70;;;9.70;99.90;;;;;;5038983;28;20218;-79
2021/09/25 03:41:34;;;;;;;4.83;3.80;;;9.70;99.90;;;;;;5038521;28;20181;-79
2021/09/25 03:44:00;;;;;;;4.70;3.50;;;9.60;99.90;;;;;;5039014;28;20207;-79
2021/09/25 03:46:26;;;;;;;4.77;3.50;;;9.70;99.90;;;;;;5040364;28;20666;-79
2021/09/25 03:48:51;;;;;;;5.33;3.30;;;9.60;99.90;;;;;;5040659;28;20169;-79
2021/09/25 03:51:17;;;;;;;4.87;4.00;;;9.60;99.90;;;;;;5038760;28;20174;-79
2021/09/25 03:53:43;;;;;;;8.33;4.17;;;9.50;99.90;;;;;;5040564;28;20169;-79
2021/09/25 03:56:08;;;;;;;5.80;3.83;;;9.40;99.90;;;;;;5040267;28;20255;-79
2021/09/25 03:58:38;;;;;;;9.77;3.33;;;9.30;99.90;;;;;;5039067;28;20186;-79
2021/09/25 04:01:06;;;;;;;4.53;3.67;;;9.30;99.90;;;;;;5040714;28;20236;-79
2021/09/25 04:03:31;;;;;;;5.97;3.20;;;9.20;99.90;;;;;;5040517;28;20180;-79
2021/09/25 04:05:58;;;;;;;4.80;3.50;;;9.20;99.90;;;;;;5039034;28;20209;-79
2021/09/25 04:08:24;;;;;;;4.70;4.20;;;9.20;99.90;;;;;;5039440;28;20238;-79
2021/09/25 04:10:50;;;;;;;7.00;3.20;;;9.10;99.90;;;;;;5039573;28;20170;-79
2021/09/25 04:13:16;;;;;;;3.73;3.33;;;9.10;99.90;;;;;;5039314;28;20176;-79
2021/09/25 04:15:42;;;;;;;4.30;3.13;;;9.10;99.90;;;;;;5037833;28;20192;-80
2021/09/25 04:18:08;;;;;;;5.73;3.23;;;9.10;99.90;;;;;;5037907;28;20227;-78
2021/09/25 04:20:35;;;;;;;4.60;3.67;;;9.10;99.90;;;;;;5039080;28;20266;-79
2021/09/25 04:23:01;;;;;;;3.60;3.23;;;9.10;99.90;;;;;;5036521;28;20186;-79
2021/09/25 04:25:30;;;;;;;4.23;3.40;;;9.10;99.90;;;;;;5037316;28;20270;-79
2021/09/25 04:27:57;;;;;;;3.43;3.13;;;9.20;99.90;;;;;;5038889;28;20295;-79
2021/09/25 04:30:23;;;;;;;4.03;3.63;;;9.10;99.90;;;;;;5037934;28;20229;-79
2021/09/25 04:32:48;;;;;;;3.97;3.30;;;9.10;99.90;;;;;;5039126;28;20180;-79
2021/09/25 04:35:14;;;;;;;3.47;2.93;;;9.10;99.90;;;;;;5038902;28;20199;-79
2021/09/25 04:37:40;;;;;;;5.47;3.50;;;9.10;99.90;;;;;;5037275;28;20292;-79
2021/09/25 04:40:06;;;;;;;4.23;3.83;;;9.10;99.90;;;;;;5038877;28;20189;-79
2021/09/25 04:42:32;;;;;;;3.40;3.07;;;9.10;99.90;;;;;;5038111;28;20182;-79
2021/09/25 04:44:57;;;;;;;5.20;3.70;;;9.10;99.90;;;;;;5038929;28;20544;-79
2021/09/25 04:47:23;;;;;;;6.37;3.97;;;9.00;99.90;;;;;;5037357;28;20200;-79
2021/09/25 04:49:49;;;;;;;4.70;3.70;;;9.00;99.90;;;;;;5038761;28;20177;-79
2021/09/25 04:52:14;;;;;;;3.50;3.20;;;9.00;99.90;;;;;;5037576;28;20178;-79
2021/09/25 04:54:40;;;;;;;4.10;3.60;;;8.90;99.90;;;;;;5038776;28;20180;-79
2021/09/25 04:57:05;;;;;;;4.77;3.47;;;8.90;99.90;;;;;;5038951;28;20200;-79
2021/09/25 04:59:31;;;;;;;3.80;3.40;;;8.90;99.90;;;;;;5039237;28;20186;-79
2021/09/25 05:01:57;;;;;;;4.70;2.93;;;8.90;99.90;;;;;;5037785;28;20195;-79
2021/09/25 05:04:22;;;;;;;3.63;3.20;;;9.00;99.90;;;;;;5037228;28;20181;-79
2021/09/25 05:06:48;;;;;;;3.33;2.97;;;9.00;99.90;;;;;;5038294;28;20210;-79
2021/09/25 05:09:14;;;;;;;3.90;3.40;;;9.00;99.90;;;;;;5037814;28;20184;-79
2021/09/25 05:11:39;;;;;;;3.77;3.17;;;9.10;99.90;;;;;;5038637;28;20208;-79
2021/09/25 05:14:05;;;;;;;5.33;4.07;;;9.10;99.90;;;;;;5038416;28;20186;-79
2021/09/25 05:16:31;;;;;;;5.33;4.23;;;9.10;99.90;;;;;;5039108;28;20604;-79
2021/09/25 05:18:56;;;;;;;4.27;2.83;;;9.20;99.90;;;;;;5037505;28;20188;-79
2021/09/25 05:21:24;;;;;;;3.17;2.80;;;9.20;99.90;;;;;;5042306;28;20187;-79
2021/09/25 05:23:50;;;;;;;4.10;3.40;;;9.30;99.90;;;;;;5039940;28;20178;-79
2021/09/25 05:26:16;;;;;;;6.73;2.87;;;9.30;99.90;;;;;;5040661;28;20219;-78
2021/09/25 05:28:42;;;;;;;5.27;2.70;;;9.40;99.90;;;;;;5040531;28;20184;-79
2021/09/25 05:31:11;;;;;;;3.43;2.90;;;9.40;99.90;;;;;;5039656;28;20206;-79
2021/09/25 05:33:38;;;;;;;5.20;2.60;;;9.40;99.90;;;;;;5039819;28;20196;-78
2021/09/25 05:36:04;;;;;;;4.07;2.87;;;9.50;99.90;;;;;;5040391;28;20185;-83
2021/09/25 05:38:29;;;;;;;3.83;2.83;;;9.50;99.90;;;;;;5039996;28;20199;-84
2021/09/25 05:40:55;;;;;;;3.93;2.87;;;9.50;99.90;;;;;;5040565;28;20192;-79
2021/09/25 05:43:21;;;;;;;4.77;2.60;;;9.50;99.90;;;;;;5038730;28;20192;-79
2021/09/25 05:45:46;;;;;;;7.17;3.27;;;9.60;99.90;;;;;;5039166;28;20304;-79
2021/09/25 05:48:12;;;;;;;6.03;2.60;;;9.60;99.90;;;;;;5037712;28;20190;-79
2021/09/25 05:50:38;;;;;;;3.50;3.17;;;9.70;99.90;;;;;;5041373;28;20664;-78
2021/09/25 05:53:03;;;;;;;2.90;2.60;;;9.70;99.90;;;;;;5042701;28;20170;-79
2021/09/25 05:55:29;;;;;;;4.00;2.50;;;9.70;99.90;;;;;;5039839;28;20540;-79
2021/09/25 05:57:59;;;;;;;2.50;2.30;;;9.80;99.90;;;;;;5038800;28;20208;-80
2021/09/25 06:00:24;;;;;;;4.90;2.40;;;9.80;99.90;;;;;;5038296;28;20182;-79
2021/09/25 06:02:50;;;;;;;2.73;2.50;;;9.90;99.90;;;;;;5037649;28;20223;-79
2021/09/25 06:05:16;;;;;;;5.70;3.00;;;9.90;99.90;;;;;;5038647;28;20755;-79
2021/09/25 06:07:41;;;;;;;4.60;2.60;;;9.90;99.90;;;;;;5036466;28;20190;-79
2021/09/25 06:10:08;;;;;;;3.23;2.80;;;9.90;99.90;;;;;;5035290;28;20260;-79
2021/09/25 06:12:33;;;;;;;3.23;2.80;;;10.00;99.90;;;;;;5033398;28;20176;-78
2021/09/25 06:14:59;;;;;;;3.77;3.03;;;10.10;99.90;;;;;;5034292;28;20657;-79
2021/09/25 06:17:25;;;;;;;3.23;2.70;;;10.10;99.90;;;;;;5034656;28;20204;-79
2021/09/25 06:19:50;;;;;;;2.60;2.20;;;10.20;99.90;;;;;;5036908;28;20177;-78
2021/09/25 06:22:16;;;;;;;3.43;2.47;;;10.30;99.90;;;;;;5037382;28;20570;-80
2021/09/25 06:24:42;;;;;;;4.17;2.60;;;10.30;99.90;;;;;;5034836;28;20178;-80
2021/09/25 06:27:08;;;;;;;5.53;2.70;;;10.40;99.90;;;;;;5035491;28;20223;-79
2021/09/25 06:29:34;;;;;;;2.93;2.53;;;10.40;99.90;;;;;;5036694;28;20181;-78
2021/09/25 06:31:59;;;;;;;3.10;2.43;;;10.60;99.90;;;;;;5035152;28;20578;-79
2021/09/25 06:34:25;;;;;;;4.17;2.63;;;10.60;99.90;;;;;;5037147;28;20186;-80
2021/09/25 06:36:51;;;;;;;2.47;2.27;;;10.70;99.90;;;;;;5036053;28;20301;-80
2021/09/25 06:39:17;;;;;;;5.13;2.67;;;10.80;99.90;;;;;;5034624;28;20550;-79
2021/09/25 06:41:43;;;;;;;2.60;2.23;;;10.90;99.90;;;;;;5036237;28;20304;-81
2021/09/25 06:44:09;;;;;;;2.50;1.90;;;11.00;99.90;;;;;;5038300;28;20207;-81
2021/09/25 06:46:34;;;;;;;2.67;2.20;;;11.20;99.90;;;;;;5041107;28;20683;-80
2021/09/25 06:49:00;;;;;;;6.57;2.23;;;11.30;99.90;;;;;;5044746;28;20627;-80
2021/09/25 06:51:27;;;;;;;3.47;2.50;;;11.40;99.90;;;;;;5041578;28;20192;-79
2021/09/25 06:53:54;;;;;;;3.07;2.53;;;11.50;99.90;;;;;;5045606;28;20665;-81
2021/09/25 06:56:19;;;;;;;2.30;2.10;;;11.70;99.90;;;;;;5043829;28;20565;-80
2021/09/25 06:58:45;;;;;;;2.53;2.07;;;11.90;99.90;;;;;;5046616;28;20189;-80
2021/09/25 07:01:11;;;;;;;3.20;2.40;;;12.10;99.90;;;;;;5045018;28;20182;-80
2021/09/25 07:03:36;;;;;;;3.33;2.10;;;12.30;99.90;;;;;;5042831;28;20174;-80
2021/09/25 07:06:02;;;;;;;2.87;1.80;;;12.30;99.90;;;;;;5043646;28;20201;-80
2021/09/25 07:08:28;;;;;;;2.90;2.10;;;12.30;99.90;;;;;;5044368;28;20198;-81
2021/09/25 07:10:53;;;;;;;3.10;2.13;;;12.40;99.90;;;;;;5048596;28;20651;-80
2021/09/25 07:13:19;;;;;;;2.10;1.90;;;12.50;99.90;;;;;;5046889;28;20174;-80
2021/09/25 07:15:45;;;;;;;3.40;1.93;;;12.60;99.90;;;;;;5046507;28;20174;-80
2021/09/25 07:18:10;;;;;;;2.50;1.97;;;12.70;99.90;;;;;;5046181;28;20197;-80
2021/09/25 07:20:36;;;;;;;1.80;1.70;;;12.80;99.90;;;;;;5045838;28;20218;-80
2021/09/25 07:23:02;;;;;;;2.10;1.80;;;12.90;99.90;;;;;;5046620;28;20649;-80
2021/09/25 07:25:29;;;;;;;2.50;1.93;;;13.00;99.90;;;;;;5045619;28;20240;-80
2021/09/25 07:27:55;;;;;;;2.93;1.57;;;13.10;99.90;;;;;;5045453;28;20209;-80
2021/09/25 07:30:22;;;;;;;2.83;2.10;;;13.20;99.90;;;;;;5045362;28;20170;-80
2021/09/25 07:32:48;;;;;;;1.70;1.60;;;13.40;99.90;;;;;;5042821;28;20174;-80
2021/09/25 07:35:15;;;;;;;3.77;1.60;;;13.60;99.90;;;;;;5044223;28;20212;-80
2021/09/25 07:37:42;;;;;;;2.40;1.90;;;13.70;99.90;;;;;;5043670;28;20198;-81
2021/09/25 07:40:09;;;;;;;2.03;1.40;;;13.90;99.90;;;;;;5044140;28;20175;-82
2021/09/25 07:42:35;;;;;;;2.03;1.73;;;14.00;99.90;;;;;;5043903;28;20266;-79
2021/09/25 07:45:00;;;;;;;3.13;1.77;;;14.20;99.90;;;;;;5043759;28;20205;-81
2021/09/25 07:47:26;;;;;;;3.77;2.03;;;14.30;99.90;;;;;;5044800;28;20207;-84
2021/09/25 07:49:52;;;;;;;2.20;1.70;;;14.60;99.90;;;;;;5042675;28;20265;-82
2021/09/25 07:52:17;;;;;;;2.03;1.53;;;15.20;99.90;;;;;;5042154;28;20256;-84
2021/09/25 07:54:43;;;;;;;1.50;1.40;;;15.80;99.90;;;;;;5041619;28;20578;-82
2021/09/25 07:57:09;;;;;;;1.60;1.50;;;16.50;99.90;;;;;;5042782;28;20547;-82
2021/09/25 07:59:35;;;;;;;2.00;1.53;;;17.20;99.90;;;;;;5039797;28;20186;-82
2021/09/25 08:02:02;;;;;;;2.27;1.90;;;17.70;99.90;;;;;;5038652;28;20180;-81
2021/09/25 08:04:28;;;;;;;1.67;1.57;;;18.00;99.90;;;;;;5040382;28;20169;-81
2021/09/25 08:06:53;;;;;;;2.57;1.30;;;18.40;99.90;;;;;;5039476;28;20269;-81
2021/09/25 08:09:23;;;;;;;2.17;1.50;;;18.90;99.90;;;;;;5038815;28;20271;-81
2021/09/25 08:11:50;;;;;;;4.00;1.70;;;19.50;99.90;;;;;;5041733;28;20206;-81
2021/09/25 08:14:16;;;;;;;2.03;1.60;;;20.10;99.90;;;;;;5043436;28;20196;-85
2021/09/25 08:16:41;;;;;;;2.10;1.53;;;20.40;99.90;;;;;;5044469;28;20202;-87
2021/09/25 08:19:07;;;;;;;2.70;1.50;;;20.50;99.90;;;;;;5040677;28;20553;-88
2021/09/25 08:21:33;;;;;;;2.90;1.50;;;20.70;99.90;;;;;;5041238;28;20601;-88
2021/09/25 08:23:58;;;;;;;2.23;2.00;;;21.10;99.90;;;;;;5040312;28;20636;-87
2021/09/25 08:26:24;;;;;;;1.90;1.50;;;21.80;99.90;;;;;;5039555;28;20230;-87
2021/09/25 08:28:50;;;;;;;3.40;1.40;;;21.80;99.90;;;;;;5038662;28;20179;-88
2021/09/25 08:31:16;;;;;;;4.40;1.50;;;22.00;99.90;;;;;;5037871;28;20179;-89
2021/09/25 08:33:42;;;;;;;1.63;1.53;;;22.30;99.90;;;;;;5037326;28;20183;-89
2021/09/25 08:36:07;;;;;;;2.13;1.47;;;22.20;98.40;;;;;;5037436;28;20206;-88
2021/09/25 08:38:33;;;;;;;3.67;1.77;;;22.30;98.50;;;;;;5037435;28;20215;-89
2021/09/25 08:40:59;;;;;;;2.40;1.60;;;22.60;97.40;;;;;;5038208;28;20263;-89
2021/09/25 08:43:26;;;;;;;3.37;1.33;;;22.60;97.50;;;;;;5037561;28;20591;-88
2021/09/25 08:46:11;;;;;;;1.57;1.47;;;22.90;98.70;;;;;;5037757;28;20238;-89
2021/09/25 08:48:38;;;;;;;2.40;1.53;;;23.10;97.50;;;;;;5043465;28;20173;-86
2021/09/25 08:51:04;;;;;;;4.23;1.43;;;23.50;95.80;;;;;;5040604;28;20308;-84
2021/09/25 08:53:29;;;;;;;2.00;1.47;;;23.70;94.40;;;;;;5040022;28;20227;-87
2021/09/25 08:55:55;;;;;;;1.53;1.30;;;24.00;96.00;;;;;;5041318;28;20182;-87
2021/09/25 08:58:21;;;;;;;1.70;1.47;;;24.20;96.50;;;;;;5042122;28;20205;-87
2021/09/25 09:00:52;;;;;;;1.30;1.20;;;24.30;93.60;;;;;;5042628;28;20189;-87
2021/09/25 09:03:34;;;;;;;1.53;1.20;;;24.10;94.40;;;;;;5041473;28;20178;-84
2021/09/25 09:06:10;;;;;;;3.00;1.40;;;24.20;93.40;;;;;;5038833;28;20288;-86
2021/09/25 09:08:37;;;;;;;1.40;1.30;;;24.10;91.20;;;;;;5028569;28;20539;-86
2021/09/25 09:11:06;;;;;;;1.20;1.10;;;24.20;94.60;;;;;;5018361;28;20207;-86
2021/09/25 09:13:32;;;;;;;4.43;1.30;;;24.20;91.10;;;;;;5018059;28;20700;-85
2021/09/25 09:16:02;;;;;;;1.27;1.00;;;24.20;93.70;;;;;;5018880;28;20171;-85
2021/09/25 09:18:29;;;;;;;1.97;1.13;;;24.50;90.50;;;;;;5017459;28;20286;-85
2021/09/25 09:21:15;;;;;;;1.53;1.27;;;24.80;92.00;;;;;;5017372;28;20175;-86
2021/09/25 09:23:49;;;;;;;3.10;1.30;;;25.00;92.50;;;;;;5022495;28;20226;-86
2021/09/25 09:26:20;;;;;;;1.90;1.20;;;25.10;90.80;;;;;;5022832;28;20311;-85
2021/09/25 09:28:48;;;;;;;1.83;1.17;;;25.30;90.50;;;;;;5040868;28;20542;-81
2021/09/25 09:31:15;;;;;;;1.53;1.20;;;25.50;91.90;;;;;;5034601;28;20185;-82
2021/09/25 09:33:43;;;;;;;2.40;1.20;;;25.80;90.50;;;;;;5041045;28;20646;-87
2021/09/25 09:36:20;;;;;;;2.07;1.20;;;26.00;91.80;;;;;;5040675;28;20266;-84
2021/09/25 09:38:55;;;;;;;1.70;1.10;;;25.90;90.00;;;;;;5042794;28;20181;-84
2021/09/25 09:41:25;;;;;;;3.63;1.30;;;26.00;90.80;;;;;;5043170;28;20182;-84
2021/09/25 09:43:52;;;;;;;1.43;1.33;;;26.20;90.40;;;;;;5045267;28;20163;-84
2021/09/25 09:46:18;;;;;;;1.97;1.40;;;26.40;90.40;;;;;;5042855;28;20276;-84
2021/09/25 09:48:45;;;;;;;2.80;1.53;;;26.60;84.70;;;;;;5043948;28;20178;-84
2021/09/25 09:51:11;;;;;;;1.23;1.10;;;26.90;84.60;;;;;;5039729;28;20175;-84
2021/09/25 09:53:46;;;;;;;1.43;1.20;;;26.90;88.50;;;;;;5042037;28;20175;-84
2021/09/25 09:56:20;;;;;;;2.10;1.30;;;27.30;89.10;;;;;;5042512;28;20682;-85
2021/09/25 09:58:56;;;;;;;1.40;1.30;;;27.50;85.10;;;;;;5044233;28;20300;-84
2021/09/25 10:01:22;;;;;;;2.70;1.10;;;27.40;85.60;;;;;;5044614;28;20691;-85
2021/09/25 10:03:48;;;;;;;2.80;1.20;;;27.10;81.90;;;;;;5044244;28;20253;-85
2021/09/25 10:06:14;;;;;;;1.53;1.20;;;27.10;90.20;;;;;;5045258;28;20286;-83
2021/09/25 10:08:40;;;;;;;1.53;1.43;;;27.30;82.60;;;;;;5046137;28;20176;-85
2021/09/25 10:11:06;;;;;;;1.50;1.20;;;27.40;82.50;;;;;;5046953;28;20668;-83
2021/09/25 10:13:34;;;;;;;2.27;1.30;;;27.50;89.00;;;;;;5044290;28;20197;-81
2021/09/25 10:16:00;;;;;;;5.03;1.60;;;27.70;87.00;;;;;;5052057;28;20187;-82
2021/09/25 10:18:26;;;;;;;1.70;1.50;;;27.90;82.90;;;;;;5053170;28;20233;-81
2021/09/25 10:20:53;;;;;;;2.80;1.40;;;28.00;83.70;;;;;;5051965;28;20194;-81
2021/09/25 10:23:19;;;;;;;1.50;1.40;;;28.00;80.80;;;;;;5052596;28;20191;-82
2021/09/25 10:25:46;;;;;;;1.47;1.37;;;27.70;79.70;;;;;;5051953;28;20211;-80
2021/09/25 10:28:28;;;;;;;1.90;1.40;;;27.80;83.00;;;;;;5052014;28;20235;-81
2021/09/25 10:30:54;;;;;;;1.97;1.60;;;28.10;80.50;;;;;;5050604;28;20185;-81
2021/09/25 10:33:22;;;;;;;3.13;1.30;;;28.10;82.90;;;;;;5048747;28;20179;-83
2021/09/25 10:35:50;;;;;;;1.83;1.67;;;28.20;81.10;;;;;;5042756;28;20185;-84
2021/09/25 10:38:34;;;;;;;1.93;1.67;;;28.50;78.60;;;;;;5036992;28;20191;-81
2021/09/25 10:41:19;;;;;;;5.57;1.60;;;28.70;82.00;;;;;;5039374;28;20178;-79
2021/09/25 10:43:47;;;;;;;1.10;1.00;;;28.60;80.50;;;;;;5039520;28;20185;-83
2021/09/25 10:46:15;;;;;;;2.10;1.50;;;28.90;81.90;;;;;;5032221;28;20194;-83
2021/09/25 10:48:46;;;;;;;2.40;1.60;;;29.20;79.80;;;;;;5040261;28;20202;-84
2021/09/25 10:51:15;;;;;;;1.87;1.37;;;29.30;77.70;;;;;;5023223;28;20221;-86
2021/09/25 10:53:44;;;;;;;3.17;1.57;;;29.60;75.70;;;;;;5042584;28;20650;-85
2021/09/25 10:56:22;;;;;;;2.53;1.40;;;29.50;80.10;;;;;;5042925;28;20179;-84
2021/09/25 10:58:54;;;;;;;1.93;1.63;;;29.40;82.20;;;;;;5042966;28;20172;-83
2021/09/25 11:01:29;;;;;;;2.90;2.10;;;29.50;79.00;;;;;;5040585;28;20180;-84
2021/09/25 11:03:58;;;;;;;2.60;1.40;;;29.30;75.40;;;;;;5040414;28;20184;-84
2021/09/25 11:06:27;;;;;;;1.60;1.50;;;29.00;76.90;;;;;;5039780;28;20273;-82
2021/09/25 11:09:15;;;;;;;2.00;1.83;;;29.10;79.60;;;;;;5039522;28;20180;-83
2021/09/25 11:11:45;;;;;;;4.30;1.83;;;29.30;81.10;;;;;;5038007;28;20176;-84
2021/09/25 11:14:10;;;;;;;3.13;1.90;;;29.10;76.70;;;;;;5040345;28;20268;-85
2021/09/25 11:16:53;;;;;;;1.77;1.67;;;29.40;83.10;;;;;;5038498;28;20249;-83
2021/09/25 11:19:22;;;;;;;2.87;1.80;;;29.80;74.30;;;;;;5040167;28;20178;-83
2021/09/25 11:21:50;;;;;;;4.53;1.77;;;30.00;75.20;;;;;;5039057;28;20185;-83
2021/09/25 11:24:19;;;;;;;1.63;1.40;;;30.30;79.10;;;;;;5040254;28;20226;-83
2021/09/25 11:26:45;;;;;;;1.73;1.63;;;30.60;77.20;;;;;;5038764;28;20218;-82
2021/09/25 11:29:11;;;;;;;2.10;1.50;;;30.70;75.90;;;;;;5039886;28;20580;-83
2021/09/25 11:31:38;;;;;;;2.10;1.90;;;30.70;70.90;;;;;;5037758;28;20181;-83
2021/09/25 11:34:22;;;;;;;1.90;1.80;;;30.70;75.60;;;;;;5043607;28;20208;-82
2021/09/25 11:36:50;;;;;;;2.03;1.73;;;31.00;73.80;;;;;;5041461;28;20201;-83
2021/09/25 11:39:23;;;;;;;1.70;1.60;;;30.90;70.00;;;;;;5041694;28;20182;-83
2021/09/25 11:42:16;;;;;;;3.03;1.80;;;30.90;78.20;;;;;;5040179;28;20185;-82
2021/09/25 11:44:41;;;;;;;1.93;1.83;;;31.00;72.90;;;;;;5043851;28;20198;-84
2021/09/25 11:47:07;;;;;;;4.33;1.60;;;31.30;70.00;;;;;;5038761;28;20207;-83
2021/09/25 11:49:35;;;;;;;3.00;1.57;;;31.70;72.30;;;;;;5038308;28;20190;-83
2021/09/25 11:52:00;;;;;;;2.43;1.67;;;31.40;70.10;;;;;;5039015;28;20182;-83
2021/09/25 11:54:27;;;;;;;2.63;1.63;;;31.50;72.20;;;;;;5039783;28;20172;-83
2021/09/25 11:56:52;;;;;;;1.57;1.47;;;31.50;75.50;;;;;;5038906;28;20288;-83
2021/09/25 11:59:21;;;;;;;1.80;1.70;;;31.80;71.70;;;;;;5040496;28;20252;-83
2021/09/25 12:01:48;;;;;;;2.00;1.90;;;31.90;65.00;;;;;;5040858;28;20230;-83
2021/09/25 12:04:15;;;;;;;1.77;1.67;;;31.90;67.90;;;;;;5039450;28;20203;-83
2021/09/25 12:06:53;;;;;;;2.63;2.20;;;31.70;65.80;;;;;;5039199;28;20214;-83
2021/09/25 12:09:38;;;;;;;2.13;1.80;;;31.90;67.70;;;;;;5022879;28;20174;-82
2021/09/25 12:12:04;;;;;;;2.13;2.03;;;32.10;63.30;;;;;;5018630;28;20167;-83
2021/09/25 12:14:39;;;;;;;2.73;1.67;;;32.20;66.40;;;;;;5017027;28;20179;-82
2021/09/25 12:17:05;;;;;;;1.70;1.60;;;32.40;63.20;;;;;;5016325;28;20229;-82
2021/09/25 12:19:31;;;;;;;2.67;1.83;;;32.20;62.90;;;;;;5020489;28;20177;-83
2021/09/25 12:21:57;;;;;;;1.80;1.57;;;31.90;64.80;;;;;;5031432;28;20197;-82
2021/09/25 12:24:22;;;;;;;1.60;1.50;;;32.40;65.40;;;;;;5030959;28;20675;-82
2021/09/25 12:26:52;;;;;;;1.83;1.73;;;32.50;66.70;;;;;;5024337;28;20767;-83
2021/09/25 12:29:19;;;;;;;4.50;1.83;;;33.20;63.70;;;;;;5031831;28;20208;-83
2021/09/25 12:31:45;;;;;;;2.00;1.80;;;33.40;62.40;;;;;;5039063;28;20176;-82
2021/09/25 12:34:14;;;;;;;2.33;1.67;;;33.60;65.20;;;;;;5039639;28;20239;-83
2021/09/25 12:36:42;;;;;;;4.20;1.80;;;33.50;64.80;;;;;;5038559;28;20247;-83
2021/09/25 12:39:13;;;;;;;3.60;1.70;;;33.80;60.00;;;;;;5040236;28;20183;-83
2021/09/25 12:41:51;;;;;;;1.87;1.77;;;33.80;68.90;;;;;;5039182;28;20173;-83
2021/09/25 12:44:19;;;;;;;1.60;1.50;;;33.30;62.80;;;;;;5037593;28;20184;-83
2021/09/25 12:46:54;;;;;;;2.33;2.13;;;33.10;67.60;;;;;;5038703;28;20216;-83
2021/09/25 12:49:35;;;;;;;2.03;1.70;;;33.70;58.20;;;;;;5040167;28;20227;-83
2021/09/25 12:52:08;;;;;;;2.20;2.00;;;33.70;59.70;;;;;;5040035;28;20520;-83